Westfield, New York
Current Conditions -  °F | °C
As of 3:23 AM on Tuesday 21 Oct 2014 (Local Time) from KDKK Reporting Station
Overcast Overcast  
Wind Chill: 52°   Ceiling: 1100
Heat Index: 52°   Visibility: 8mi
Dew Point: 49°   Wind: 12mph
Humidity: 89%   Direction: 300°WNW
Pressure: 29.79"   Gusts: NA
Location:  42.32°N, 79.58°W
Report Text: KDKK 210723Z AUTO 30010KT 8SM FEW007 OVC011 11/09 A2979 RMK AO2 RAE19 P0000 T01110094
Loading
Personal Weather Stations






























Interactive Weather Map
Tropical Storm Tracking
New forecast layout! Learn more

10-Day Weather Forecast

Advertisements
Track Severe Weather on mobile